createdAt,value
2022-12-22T00:01:20.206Z,90.90
2022-12-22T00:04:06.667Z,91.00
2022-12-22T00:06:52.639Z,91.00
2022-12-22T00:09:38.866Z,91.10
2022-12-22T00:12:24.875Z,91.20
2022-12-22T00:15:10.612Z,91.20
2022-12-22T00:17:56.299Z,91.30
2022-12-22T00:20:42.044Z,91.40
2022-12-22T00:23:28.830Z,91.40
2022-12-22T00:26:16.535Z,91.40
2022-12-22T00:29:02.988Z,91.60
2022-12-22T00:31:49.114Z,91.70
2022-12-22T00:34:39.013Z,91.70
2022-12-22T00:37:29.175Z,91.80
2022-12-22T00:40:14.991Z,91.80
2022-12-22T00:43:01.049Z,92.00
2022-12-22T00:45:47.380Z,92.10
2022-12-22T00:48:44.953Z,92.10
2022-12-22T00:51:31.374Z,92.10
2022-12-22T00:54:17.153Z,92.00
2022-12-22T00:57:03.685Z,92.30
2022-12-22T00:59:49.632Z,92.10
2022-12-22T01:02:36.702Z,92.10
2022-12-22T01:05:22.919Z,92.10
2022-12-22T01:08:08.857Z,92.10
2022-12-22T01:10:54.832Z,92.20
2022-12-22T01:13:40.678Z,92.30
2022-12-22T01:16:29.990Z,92.30
2022-12-22T01:19:16.214Z,92.20
2022-12-22T01:22:02.407Z,92.50
2022-12-22T01:24:48.842Z,92.40
2022-12-22T01:27:35.470Z,92.20
2022-12-22T01:30:21.706Z,92.20
2022-12-22T01:33:07.441Z,92.20
2022-12-22T01:35:54.390Z,92.20
2022-12-22T01:38:40.175Z,92.20
2022-12-22T01:41:33.464Z,92.50
2022-12-22T01:44:19.171Z,92.30
2022-12-22T01:47:05.883Z,92.30
2022-12-22T01:49:59.676Z,92.20
2022-12-22T01:52:53.193Z,92.20
2022-12-22T01:55:41.444Z,92.30
2022-12-22T01:58:39.269Z,92.30
2022-12-22T02:01:25.398Z,92.30
2022-12-22T02:04:11.523Z,92.50
2022-12-22T02:07:00.879Z,92.60
2022-12-22T02:10:17.221Z,92.70
2022-12-22T02:13:32.669Z,92.70
2022-12-22T02:16:50.075Z,92.50
2022-12-22T02:20:13.558Z,92.40
2022-12-22T02:23:17.771Z,92.30
2022-12-22T02:26:22.526Z,92.30
2022-12-22T02:29:09.795Z,92.30
2022-12-22T02:31:57.691Z,92.30
2022-12-22T02:34:43.839Z,92.40
2022-12-22T02:37:49.447Z,92.70
2022-12-22T02:40:46.511Z,92.50
2022-12-22T02:43:47.560Z,92.50
2022-12-22T02:46:47.549Z,92.40
2022-12-22T02:49:51.560Z,92.30
2022-12-22T02:52:45.734Z,92.30
2022-12-22T02:55:33.361Z,92.40
2022-12-22T02:58:19.486Z,92.30
2022-12-22T03:01:06.360Z,92.20
2022-12-22T03:03:52.146Z,92.20
2022-12-22T03:06:38.244Z,92.30
2022-12-22T03:09:24.501Z,92.30
2022-12-22T03:12:10.544Z,92.20
2022-12-22T03:14:56.430Z,92.30
2022-12-22T03:17:42.271Z,92.20
2022-12-22T03:20:28.747Z,92.00
2022-12-22T03:23:14.607Z,92.10
2022-12-22T03:25:57.035Z,92.30
2022-12-22T03:28:28.869Z,92.40
2022-12-22T03:31:02.383Z,92.30
2022-12-22T03:33:30.997Z,92.10
2022-12-22T03:35:59.193Z,92.10
2022-12-22T03:38:26.986Z,91.90
2022-12-22T03:40:55.048Z,91.90
2022-12-22T03:43:41.224Z,91.90
2022-12-22T03:46:32.876Z,92.00
2022-12-22T03:49:11.219Z,92.10
2022-12-22T03:51:53.005Z,92.20
2022-12-22T03:54:22.553Z,92.30
2022-12-22T03:56:50.505Z,92.30
2022-12-22T03:59:18.980Z,92.30
2022-12-22T04:01:54.895Z,92.40
2022-12-22T04:04:24.871Z,92.40
2022-12-22T04:06:52.884Z,92.60
2022-12-22T04:09:22.600Z,92.60
2022-12-22T04:12:08.555Z,92.60
2022-12-22T04:14:36.134Z,92.50
2022-12-22T04:17:04.711Z,92.90
2022-12-22T04:19:32.703Z,92.70
2022-12-22T04:22:00.185Z,92.80
2022-12-22T04:24:27.998Z,92.80
2022-12-22T04:26:55.595Z,92.80
2022-12-22T04:29:22.878Z,92.80
2022-12-22T04:31:50.379Z,92.80
2022-12-22T04:34:17.861Z,93.00
2022-12-22T04:36:45.309Z,93.10
2022-12-22T04:39:12.743Z,93.00
2022-12-22T04:41:40.200Z,93.00
2022-12-22T04:44:07.575Z,93.10
2022-12-22T04:46:34.912Z,92.90
2022-12-22T04:49:02.334Z,93.00
2022-12-22T04:51:29.695Z,92.90
2022-12-22T04:53:57.064Z,93.10
2022-12-22T04:56:24.718Z,93.30
2022-12-22T04:58:52.324Z,93.30
2022-12-22T05:01:20.129Z,93.40
2022-12-22T05:03:48.113Z,93.40
2022-12-22T05:06:16.367Z,93.30
2022-12-22T05:08:43.773Z,93.30
2022-12-22T05:11:11.529Z,93.40
2022-12-22T05:13:39.400Z,93.40
2022-12-22T05:16:13.556Z,93.40
2022-12-22T05:18:43.386Z,93.30
2022-12-22T05:21:19.604Z,93.10
2022-12-22T05:23:47.808Z,93.20
2022-12-22T05:26:17.705Z,93.10
2022-12-22T05:28:49.460Z,93.20
2022-12-22T05:31:22.365Z,93.10
2022-12-22T05:33:50.660Z,93.10
2022-12-22T05:36:18.601Z,93.20
2022-12-22T05:38:46.067Z,93.20
2022-12-22T05:41:14.050Z,93.30
2022-12-22T05:43:41.749Z,93.40
2022-12-22T05:46:11.182Z,93.30
2022-12-22T05:48:40.176Z,93.30
2022-12-22T05:51:09.178Z,93.40
2022-12-22T05:53:38.044Z,93.30
2022-12-22T05:56:07.309Z,93.30
2022-12-22T05:58:37.662Z,93.10
2022-12-22T06:01:05.804Z,93.20
2022-12-22T06:03:33.262Z,93.50
2022-12-22T06:06:00.907Z,93.40
2022-12-22T06:08:28.384Z,93.50
2022-12-22T06:10:58.098Z,93.50
2022-12-22T06:13:26.417Z,93.70
2022-12-22T06:15:54.630Z,93.80
2022-12-22T06:18:22.203Z,93.80
2022-12-22T06:20:52.399Z,93.80
2022-12-22T06:23:21.020Z,93.90
2022-12-22T06:25:59.271Z,94.00
2022-12-22T06:28:27.559Z,94.10
2022-12-22T06:30:55.526Z,94.00
2022-12-22T06:33:23.450Z,94.10
2022-12-22T06:35:57.596Z,94.00
2022-12-22T06:38:26.801Z,93.90
2022-12-22T06:40:54.258Z,93.90
2022-12-22T06:43:21.632Z,93.80
2022-12-22T06:45:48.994Z,93.70
2022-12-22T06:48:16.763Z,93.70
2022-12-22T06:50:44.817Z,93.80
2022-12-22T06:53:13.367Z,93.80
2022-12-22T06:55:40.627Z,93.90
2022-12-22T06:58:08.151Z,93.80
2022-12-22T07:00:35.873Z,93.90
2022-12-22T07:03:03.275Z,93.90
2022-12-22T07:05:32.255Z,93.90
2022-12-22T07:08:05.742Z,93.80
2022-12-22T07:10:53.611Z,93.70
2022-12-22T07:13:21.112Z,93.80
2022-12-22T07:15:57.259Z,93.90
2022-12-22T07:18:29.254Z,93.90
2022-12-22T07:20:56.822Z,93.80
2022-12-22T07:23:24.783Z,93.70
2022-12-22T07:25:52.368Z,93.70
2022-12-22T07:28:21.325Z,93.60
2022-12-22T07:30:50.376Z,93.40
2022-12-22T07:33:18.189Z,93.30
2022-12-22T07:35:46.083Z,93.20
2022-12-22T07:38:14.131Z,93.20
2022-12-22T07:40:42.752Z,93.40
2022-12-22T07:43:11.019Z,93.10
2022-12-22T07:45:38.617Z,93.00
2022-12-22T07:48:26.135Z,93.00
2022-12-22T07:50:55.833Z,92.90
2022-12-22T07:53:23.107Z,93.00
2022-12-22T07:55:50.583Z,93.00
2022-12-22T07:58:17.940Z,93.10
2022-12-22T08:00:46.736Z,93.10
2022-12-22T08:03:14.156Z,93.00
2022-12-22T08:05:41.766Z,92.90
2022-12-22T08:08:09.174Z,92.90
2022-12-22T08:10:36.633Z,93.00
2022-12-22T08:13:03.959Z,93.00
2022-12-22T08:15:31.467Z,92.90
2022-12-22T08:17:59.145Z,92.90
2022-12-22T08:20:26.616Z,93.00
2022-12-22T08:22:53.894Z,92.80
2022-12-22T08:25:21.222Z,93.20
2022-12-22T08:27:51.972Z,92.80
2022-12-22T08:30:19.732Z,92.80
2022-12-22T08:32:49.847Z,92.90
2022-12-22T08:35:17.553Z,93.00
2022-12-22T08:37:46.219Z,92.90
2022-12-22T08:40:21.806Z,92.90
2022-12-22T08:42:52.812Z,92.90
2022-12-22T08:45:20.353Z,92.90
2022-12-22T08:47:47.773Z,92.80
2022-12-22T08:50:15.352Z,92.60
2022-12-22T08:52:42.729Z,92.60
2022-12-22T08:55:10.747Z,92.50
2022-12-22T08:57:38.346Z,92.50
2022-12-22T09:00:08.487Z,92.50
2022-12-22T09:02:36.767Z,92.50
2022-12-22T09:05:04.798Z,92.50
2022-12-22T09:07:32.193Z,92.30
2022-12-22T09:09:59.680Z,92.40
2022-12-22T09:12:27.029Z,92.40
2022-12-22T09:14:54.305Z,92.20
2022-12-22T09:17:21.706Z,92.00
2022-12-22T09:19:49.079Z,91.80
2022-12-22T09:22:20.353Z,91.80
2022-12-22T09:24:50.820Z,91.80
2022-12-22T09:27:18.206Z,91.90
2022-12-22T09:29:45.457Z,92.10
2022-12-22T09:32:12.943Z,92.00
2022-12-22T09:34:40.459Z,91.90
2022-12-22T09:37:07.687Z,91.80
2022-12-22T09:39:34.969Z,91.70
2022-12-22T09:42:02.653Z,91.40
2022-12-22T09:44:45.027Z,91.40
2022-12-22T09:47:31.186Z,91.50
2022-12-22T09:49:59.266Z,91.40
2022-12-22T09:52:35.867Z,91.50
2022-12-22T09:55:11.660Z,91.60
2022-12-22T09:57:39.081Z,91.50
2022-12-22T10:00:21.494Z,91.50
2022-12-22T10:03:04.561Z,91.50
2022-12-22T10:06:10.150Z,91.50
2022-12-22T10:08:40.799Z,91.50
2022-12-22T10:11:12.469Z,91.40
2022-12-22T10:13:40.105Z,91.40
2022-12-22T10:16:37.331Z,91.30
2022-12-22T10:19:11.293Z,91.40
2022-12-22T10:21:46.330Z,91.30
2022-12-22T10:24:29.557Z,91.30
2022-12-22T10:26:59.095Z,91.50
2022-12-22T10:29:27.349Z,91.50
2022-12-22T10:32:02.206Z,91.50
2022-12-22T10:34:30.621Z,91.70
2022-12-22T10:37:01.524Z,91.50
2022-12-22T10:39:36.829Z,91.60
2022-12-22T10:42:14.523Z,91.70
2022-12-22T10:44:48.106Z,91.70
2022-12-22T10:47:21.978Z,91.70
2022-12-22T10:52:30.856Z,92.10
2022-12-22T10:55:29.228Z,92.10
2022-12-22T10:58:16.653Z,92.10
2022-12-22T11:00:47.727Z,92.20
2022-12-22T11:03:30.091Z,92.20
2022-12-22T11:05:59.264Z,92.60
2022-12-22T11:08:26.893Z,92.80
2022-12-22T11:10:54.315Z,92.90
2022-12-22T11:13:47.051Z,93.00
2022-12-22T11:16:29.558Z,92.80
2022-12-22T11:19:04.021Z,92.80
2022-12-22T11:21:57.592Z,92.60
2022-12-22T11:24:33.070Z,92.60
2022-12-22T11:27:28.408Z,92.60
2022-12-22T11:30:51.884Z,92.70
2022-12-22T11:33:29.885Z,92.70
2022-12-22T11:36:01.429Z,92.90
2022-12-22T11:38:55.791Z,93.20
2022-12-22T11:41:38.667Z,92.90
2022-12-22T11:44:39.341Z,93.00
2022-12-22T11:47:13.478Z,93.10
2022-12-22T11:49:55.929Z,93.20
2022-12-22T11:52:44.268Z,93.20
2022-12-22T11:55:25.998Z,93.10
2022-12-22T11:58:21.815Z,93.00
2022-12-22T12:01:35.081Z,92.90
2022-12-22T12:04:48.521Z,93.20
2022-12-22T12:07:50.756Z,93.30
2022-12-22T12:10:23.426Z,93.20
2022-12-22T12:13:09.036Z,93.20
2022-12-22T12:15:40.962Z,93.30
2022-12-22T12:18:08.238Z,93.30
2022-12-22T12:21:06.611Z,93.30
2022-12-22T12:23:42.618Z,93.50
2022-12-22T12:26:32.741Z,93.50
2022-12-22T12:29:24.337Z,93.60
2022-12-22T12:32:19.015Z,93.70
2022-12-22T12:34:51.660Z,93.80
2022-12-22T12:37:29.058Z,93.80
2022-12-22T12:40:05.864Z,94.00
2022-12-22T12:42:47.522Z,93.90
2022-12-22T12:45:34.510Z,93.90
2022-12-22T12:48:20.589Z,93.90
2022-12-22T12:50:49.605Z,94.00
2022-12-22T12:53:18.662Z,94.20
2022-12-22T12:55:52.911Z,94.20
2022-12-22T12:58:35.829Z,94.20
2022-12-22T13:01:11.634Z,94.20
2022-12-22T13:06:51.749Z,94.00
2022-12-22T13:09:50.425Z,94.20
2022-12-22T13:12:48.772Z,94.30
2022-12-22T13:15:34.423Z,94.50
2022-12-22T13:18:04.821Z,94.50
2022-12-22T13:20:37.169Z,94.60
2022-12-22T13:23:12.729Z,94.60
2022-12-22T13:25:53.062Z,94.60
2022-12-22T13:28:23.427Z,94.40
2022-12-22T13:30:56.957Z,94.40
2022-12-22T13:33:27.182Z,94.50
2022-12-22T13:35:59.268Z,94.50
2022-12-22T13:38:36.449Z,94.60
2022-12-22T13:41:19.999Z,94.40
2022-12-22T13:43:58.260Z,94.40
2022-12-22T13:46:27.161Z,94.40
2022-12-22T13:48:56.885Z,94.50
2022-12-22T13:51:28.252Z,94.50
2022-12-22T13:54:16.588Z,94.40
2022-12-22T13:57:05.527Z,94.60
2022-12-22T13:59:41.192Z,94.50
2022-12-22T14:02:08.530Z,94.50
2022-12-22T14:04:38.208Z,94.60
2022-12-22T14:07:19.590Z,94.70
2022-12-22T14:09:49.048Z,94.60
2022-12-22T14:12:22.981Z,94.70
2022-12-22T14:14:53.528Z,94.70
2022-12-22T14:17:44.609Z,94.80
2022-12-22T14:20:19.393Z,94.90
2022-12-22T14:22:52.252Z,94.90
2022-12-22T14:25:24.259Z,95.00
2022-12-22T14:27:54.783Z,94.90
2022-12-22T14:30:37.850Z,95.10
2022-12-22T14:33:32.451Z,95.10
2022-12-22T14:36:18.684Z,95.30
2022-12-22T14:38:49.589Z,95.50
2022-12-22T14:41:42.329Z,95.80
2022-12-22T14:44:23.419Z,95.80
2022-12-22T14:47:12.287Z,95.90
2022-12-22T14:50:03.000Z,96.00
2022-12-22T14:52:39.547Z,96.20
2022-12-22T14:55:26.705Z,96.40
2022-12-22T14:57:58.341Z,96.60
2022-12-22T15:00:30.447Z,96.60
2022-12-22T15:03:01.777Z,96.50
2022-12-22T15:05:37.904Z,96.30
2022-12-22T15:08:09.312Z,96.30
2022-12-22T15:10:43.395Z,96.20
2022-12-22T15:13:22.752Z,96.00
2022-12-22T15:15:54.108Z,95.90
2022-12-22T15:18:27.361Z,96.00
2022-12-22T15:20:56.847Z,96.00
2022-12-22T15:23:24.439Z,96.00
2022-12-22T15:25:51.946Z,96.20
2022-12-22T15:28:19.337Z,96.20
2022-12-22T15:30:46.848Z,96.30
2022-12-22T15:33:16.879Z,96.30
2022-12-22T15:35:45.698Z,96.30
2022-12-22T15:38:19.387Z,96.30
2022-12-22T15:40:47.220Z,96.10
2022-12-22T15:43:55.187Z,96.20
2022-12-22T15:46:05.963Z,96.30
2022-12-22T15:48:35.956Z,96.00
2022-12-22T15:51:05.875Z,96.00
2022-12-22T15:53:34.865Z,96.00
2022-12-22T15:56:02.476Z,95.90
2022-12-22T15:58:34.931Z,96.10
2022-12-22T16:01:02.433Z,96.30
2022-12-22T16:03:30.000Z,96.40
2022-12-22T16:05:57.995Z,96.30
2022-12-22T16:08:33.156Z,96.30
2022-12-22T16:11:00.686Z,96.30
2022-12-22T16:13:28.647Z,96.20
2022-12-22T16:15:58.109Z,96.30
2022-12-22T16:18:26.253Z,96.40
2022-12-22T16:20:53.911Z,96.50
2022-12-22T16:23:23.849Z,96.50
2022-12-22T16:25:58.827Z,96.30
2022-12-22T16:28:29.218Z,96.20
2022-12-22T16:30:58.073Z,96.30
2022-12-22T16:33:25.488Z,96.40
2022-12-22T16:35:53.176Z,96.40
2022-12-22T16:38:20.934Z,96.40
2022-12-22T16:40:51.298Z,96.30
2022-12-22T16:46:18.222Z,96.40
2022-12-22T16:48:59.064Z,96.30
2022-12-22T16:51:34.361Z,96.30
2022-12-22T16:54:02.597Z,96.40
2022-12-22T16:56:31.377Z,96.40
2022-12-22T16:58:58.962Z,96.40
2022-12-22T17:01:38.720Z,96.40
2022-12-22T17:04:20.054Z,96.40
2022-12-22T17:06:49.868Z,96.40
2022-12-22T17:09:43.473Z,96.50
2022-12-22T17:12:17.802Z,96.50
2022-12-22T17:14:47.379Z,96.40
2022-12-22T17:17:28.666Z,96.60
2022-12-22T17:19:59.709Z,96.90
2022-12-22T17:22:30.722Z,96.90
2022-12-22T17:25:01.983Z,97.00
2022-12-22T17:27:31.017Z,97.00
2022-12-22T17:30:03.544Z,97.00
2022-12-22T17:32:31.117Z,96.90
2022-12-22T17:34:58.371Z,96.90
2022-12-22T17:37:26.645Z,96.90
2022-12-22T17:40:01.131Z,96.80
2022-12-22T17:42:28.507Z,96.80
2022-12-22T17:44:55.801Z,96.70
2022-12-22T17:47:31.194Z,96.80
2022-12-22T17:49:59.808Z,97.00
2022-12-22T17:52:28.345Z,97.00
2022-12-22T17:54:55.936Z,96.90
2022-12-22T17:57:30.957Z,97.00
2022-12-22T17:59:58.608Z,97.00
2022-12-22T18:02:27.012Z,97.00
2022-12-22T18:04:54.392Z,97.10
2022-12-22T18:07:24.803Z,97.20
2022-12-22T18:09:59.085Z,97.40
2022-12-22T18:12:26.688Z,97.30
2022-12-22T18:14:54.403Z,97.20
2022-12-22T18:17:35.406Z,97.10
2022-12-22T18:20:04.224Z,97.10
2022-12-22T18:22:32.753Z,97.00
2022-12-22T18:25:01.068Z,97.00
2022-12-22T18:27:28.685Z,97.00
2022-12-22T18:29:56.040Z,96.90
2022-12-22T18:32:27.823Z,96.80
2022-12-22T18:34:55.532Z,97.00
2022-12-22T18:37:23.466Z,97.00
2022-12-22T18:39:51.098Z,97.00
2022-12-22T18:42:21.405Z,97.00
2022-12-22T18:44:49.699Z,96.90
2022-12-22T18:47:17.714Z,96.90
2022-12-22T18:49:46.015Z,96.80
2022-12-22T18:52:23.329Z,96.60
2022-12-22T18:54:50.846Z,96.70
2022-12-22T18:57:19.826Z,96.70
2022-12-22T18:59:48.936Z,96.60
2022-12-22T19:02:28.837Z,96.50
2022-12-22T19:04:57.713Z,96.40
2022-12-22T19:07:25.984Z,96.50
2022-12-22T19:09:53.482Z,96.60
2022-12-22T19:12:25.550Z,96.70
2022-12-22T19:14:56.940Z,96.70
2022-12-22T19:17:27.897Z,97.00
2022-12-22T19:19:56.123Z,97.20
2022-12-22T19:22:24.166Z,97.40
2022-12-22T19:24:51.772Z,97.50
2022-12-22T19:27:25.327Z,97.50
2022-12-22T19:30:04.100Z,97.60
2022-12-22T19:32:42.377Z,97.70
2022-12-22T19:35:24.484Z,98.10
2022-12-22T19:37:52.857Z,98.00
2022-12-22T19:40:24.703Z,98.00
2022-12-22T19:42:55.447Z,98.00
2022-12-22T19:45:29.701Z,98.40
2022-12-22T19:47:58.093Z,98.30
2022-12-22T19:50:27.776Z,98.30
2022-12-22T19:52:58.801Z,98.40
2022-12-22T19:55:29.733Z,98.50
2022-12-22T19:57:57.478Z,98.60
2022-12-22T20:00:27.438Z,98.70
2022-12-22T20:02:57.431Z,98.90
2022-12-22T20:05:24.924Z,98.90
2022-12-22T20:07:54.473Z,98.80
2022-12-22T20:10:23.559Z,98.90
2022-12-22T20:12:54.450Z,99.00
2022-12-22T20:15:34.487Z,99.00
2022-12-22T20:18:03.133Z,99.00
2022-12-22T20:20:36.356Z,98.90
2022-12-22T20:23:09.492Z,99.00
2022-12-22T20:25:41.626Z,98.90
2022-12-22T20:28:31.705Z,98.80
2022-12-22T20:30:59.035Z,98.60
2022-12-22T20:33:26.898Z,98.10
2022-12-22T20:35:55.997Z,97.90
2022-12-22T20:38:36.153Z,97.50
2022-12-22T20:41:05.229Z,97.20
2022-12-22T20:43:33.783Z,97.10
2022-12-22T20:46:06.603Z,97.30
2022-12-22T20:48:40.806Z,97.40
2022-12-22T20:51:12.978Z,97.50
2022-12-22T20:53:40.907Z,97.70
2022-12-22T20:56:23.258Z,97.60
2022-12-22T20:58:50.794Z,97.60
2022-12-22T21:01:19.088Z,97.60
2022-12-22T21:03:46.687Z,97.60
2022-12-22T21:06:20.386Z,97.60
2022-12-22T21:08:47.838Z,97.60
2022-12-22T21:11:15.163Z,97.60
2022-12-22T21:13:42.725Z,97.50
2022-12-22T21:16:16.262Z,97.40
2022-12-22T21:18:44.418Z,97.40
2022-12-22T21:21:13.043Z,97.30
2022-12-22T21:23:40.472Z,97.30
2022-12-22T21:26:31.709Z,97.40
2022-12-22T21:29:01.236Z,97.30
2022-12-22T21:31:29.361Z,97.50
2022-12-22T21:33:56.758Z,97.30
2022-12-22T21:36:27.921Z,97.20
2022-12-22T21:39:19.176Z,97.20
2022-12-22T21:42:01.717Z,97.10
2022-12-22T21:44:31.551Z,97.10
2022-12-22T21:46:59.281Z,97.00
2022-12-22T21:49:29.083Z,97.00
2022-12-22T21:51:56.542Z,97.00
2022-12-22T21:54:25.375Z,97.00
2022-12-22T21:56:53.933Z,97.00
2022-12-22T21:59:21.927Z,96.90
2022-12-22T22:01:52.501Z,96.90
2022-12-22T22:04:20.539Z,96.90
2022-12-22T22:06:48.163Z,96.90
2022-12-22T22:09:15.455Z,96.80
2022-12-22T22:12:01.289Z,96.80
2022-12-22T22:14:28.599Z,96.80
2022-12-22T22:16:55.838Z,96.70
2022-12-22T22:19:23.250Z,96.90
2022-12-22T22:21:50.630Z,96.90
2022-12-22T22:24:18.060Z,96.90
2022-12-22T22:26:46.370Z,96.90
2022-12-22T22:29:13.630Z,96.90
2022-12-22T22:31:41.508Z,96.90
2022-12-22T22:34:09.488Z,96.80
2022-12-22T22:36:36.799Z,96.80
2022-12-22T22:39:04.469Z,96.90
2022-12-22T22:41:39.130Z,96.80
2022-12-22T22:44:10.155Z,96.80
2022-12-22T22:46:37.597Z,96.80
2022-12-22T22:49:05.109Z,96.60
2022-12-22T22:51:32.579Z,96.70
2022-12-22T22:54:00.052Z,96.70
2022-12-22T22:56:27.572Z,96.70
2022-12-22T22:58:54.952Z,96.70
2022-12-22T23:01:22.345Z,96.80
2022-12-22T23:03:49.676Z,96.90
2022-12-22T23:06:17.144Z,96.70
2022-12-22T23:08:44.433Z,96.60
2022-12-22T23:11:15.658Z,96.60
2022-12-22T23:13:43.698Z,96.60
2022-12-22T23:16:11.381Z,96.70
2022-12-22T23:18:38.702Z,96.80
2022-12-22T23:21:08.854Z,97.00
2022-12-22T23:23:36.676Z,96.80
2022-12-22T23:26:04.749Z,96.60
2022-12-22T23:28:33.626Z,96.50
2022-12-22T23:31:01.326Z,96.50
2022-12-22T23:33:31.788Z,96.50
2022-12-22T23:35:59.301Z,96.50
2022-12-22T23:38:26.656Z,96.40
2022-12-22T23:41:05.813Z,96.40
2022-12-22T23:43:34.216Z,96.40
2022-12-22T23:46:06.945Z,96.40
2022-12-22T23:48:34.324Z,96.40
2022-12-22T23:51:02.057Z,96.30
2022-12-22T23:53:29.854Z,96.30
2022-12-22T23:55:57.129Z,96.40
2022-12-22T23:58:25.142Z,96.40
